This is the latest recevied weather packets stored in our database for station/object N8GD. If no packets are shown the sender has not sent any weather packets the latest 10 day(s).
| Time | Temp. | Humidity | Pressure | Rain* | Wind** | Luminosity | Snow |
|---|---|---|---|---|---|---|---|
| 1777684063 | 4.44° C | 91% | 1016.7 hPa | 0 mm | - | - | - |
| 1777683304 | 5° C | 91% | 1016.2 hPa | 0.25 mm | - | - | - |
| 1777683163 | 5° C | 91% | 1016.2 hPa | 0 mm | - | - | - |
| 1777682262 | 5° C | 91% | 1015.6 hPa | 0.25 mm | - | - | - |
| 1777681362 | 5° C | 91% | 1015.2 hPa | 0.25 mm | - | - | - |
| 1777680463 | 5° C | 91% | 1015 hPa | 0.25 mm | - | - | - |
| 1777680407 | 5° C | 91% | 1015 hPa | 0.25 mm | - | - | - |
| 1777679562 | 5.56° C | 90% | 1014.5 hPa | 0 mm | - | - | - |
| 1777678662 | 6.11° C | 89% | 1014.4 hPa | 0 mm | - | - | - |
| 1777677906 | 6.67° C | 89% | 1013.9 hPa | 0 mm | - | - | - |
| 1777677762 | 6.67° C | 89% | 1013.9 hPa | 0 mm | - | - | - |
| 1777677704 | 6.67° C | 89% | 1013.9 hPa | 0 mm | - | - | - |
| 1777676912 | 6.67° C | 89% | 1013.9 hPa | 0 mm | - | - | - |
| 1777676862 | 6.67° C | 89% | 1013.9 hPa | 0 mm | - | - | - |
| 1777675962 | 7.22° C | 89% | 1013.6 hPa | 0.25 mm | - | - | - |
| 1777675062 | 7.22° C | 89% | 1013.4 hPa | 0.25 mm | - | - | - |
| 1777674164 | 7.78° C | 88% | 1012.9 hPa | 0.25 mm | - | - | - |
| 1777673261 | 7.22° C | 86% | 1012.8 hPa | 0.25 mm | - | - | - |
| 1777672363 | 8.33° C | 87% | 1012.3 hPa | 0.25 mm | - | - | - |
| 1777671463 | 8.89° C | 88% | 1012.2 hPa | 0 mm | - | - | - |
| 1777671405 | 8.89° C | 88% | 1012.2 hPa | 0 mm | - | - | - |
| 1777670562 | 8.89° C | 90% | 1012.2 hPa | 0 mm | - | - | - |
| 1777669661 | 8.33° C | 90% | 1012.3 hPa | 0 mm | - | - | - |
| 1777668762 | 8.33° C | 91% | 1012.3 hPa | 0 mm | - | - | - |
| 1777668704 | 8.33° C | 91% | 1012.3 hPa | 0.25 mm | - | - | - |
* Rain latest hour (hover to see other rain measurements)
** Current wind speed in m/s (hover to see current wind gust speed)